Time;durP1;ratioP1;P1;durP2;ratioP2;P2;SDS_P1;SDS_P2;PMS_P1;PMS_P2;Temp;Humidity;BMP_temperature;BMP_pressure;BME280_temperature;BME280_humidity;BME280_pressure;Samples;Min_cycle;Max_cycle;Signal;HPM_P1;HPM_P2
2023/06/04 00:00:16;;;;;;;17.60;7.10;;;;;;;;;;6227137;28;20924;-50
2023/06/04 00:03:36;;;;;;;14.32;6.05;;;;;;;;;;6228477;28;20053;-55
2023/06/04 00:06:37;;;;;;;14.70;6.47;;;;;;;;;;6226451;28;20042;-57
2023/06/04 00:09:37;;;;;;;14.43;6.10;;;;;;;;;;6218256;28;20129;-57
2023/06/04 00:12:38;;;;;;;17.33;6.05;;;;;;;;;;6223985;28;20064;-57
2023/06/04 00:15:39;;;;;;;14.23;5.85;;;;;;;;;;6233391;28;20056;-50
2023/06/04 00:18:39;;;;;;;16.58;6.13;;;;;;;;;;6222645;28;20297;-58
2023/06/04 00:21:40;;;;;;;18.67;6.10;;;;;;;;;;6224885;28;20038;-52
2023/06/04 00:24:40;;;;;;;18.55;7.18;;;;;;;;;;6225236;28;20053;-57
2023/06/04 00:27:41;;;;;;;16.88;6.93;;;;;;;;;;6203672;28;20053;-56
2023/06/04 00:30:42;;;;;;;16.08;6.38;;;;;;;;;;6227785;28;20038;-59
2023/06/04 00:33:42;;;;;;;16.27;6.30;;;;;;;;;;6224956;28;20085;-55
2023/06/04 00:36:43;;;;;;;14.27;5.97;;;;;;;;;;6224614;28;21451;-55
2023/06/04 00:39:43;;;;;;;21.95;7.80;;;;;;;;;;6222176;28;20116;-52
2023/06/04 00:42:44;;;;;;;22.05;6.60;;;;;;;;;;6224080;28;20427;-56
2023/06/04 00:45:45;;;;;;;17.43;6.33;;;;;;;;;;6220543;28;20185;-55
2023/06/04 00:48:46;;;;;;;15.63;6.22;;;;;;;;;;6221233;28;20057;-59
2023/06/04 00:51:46;;;;;;;17.15;6.50;;;;;;;;;;6219527;28;20094;-54
2023/06/04 00:54:47;;;;;;;18.08;6.40;;;;;;;;;;6218933;28;20481;-54
2023/06/04 00:57:48;;;;;;;15.38;6.47;;;;;;;;;;6218778;28;20508;-47
2023/06/04 01:00:50;;;;;;;17.30;6.93;;;;;;;;;;6217993;28;20045;-49
2023/06/04 01:03:53;;;;;;;;;;;;;;;;;;6218795;28;20046;-55
2023/06/04 01:06:57;;;;;;;17.60;6.07;;;;;;;;;;6220879;28;20292;-55
2023/06/04 01:09:58;;;;;;;18.35;6.78;;;;;;;;;;6215725;28;20037;-54
2023/06/04 01:12:58;;;;;;;16.40;6.32;;;;;;;;;;6215484;28;20056;-59
2023/06/04 01:16:00;;;;;;;17.15;6.72;;;;;;;;;;6215855;28;20135;-57
2023/06/04 01:19:02;;;;;;;14.82;6.85;;;;;;;;;;6214666;28;20045;-58
2023/06/04 01:22:11;;;;;;;17.15;6.57;;;;;;;;;;6221266;28;20056;-59
2023/06/04 01:25:23;;;;;;;18.80;5.82;;;;;;;;;;6227400;28;20435;-59
2023/06/04 01:28:24;;;;;;;14.43;5.57;;;;;;;;;;6222250;28;20057;-55
2023/06/04 01:31:25;;;;;;;15.93;5.88;;;;;;;;;;6223353;28;20673;-56
2023/06/04 01:34:26;;;;;;;20.92;6.22;;;;;;;;;;6224243;28;20436;-57
2023/06/04 01:37:26;;;;;;;13.48;5.68;;;;;;;;;;6224557;28;20048;-53
2023/06/04 01:40:27;;;;;;;13.05;5.55;;;;;;;;;;6221354;28;20053;-51
2023/06/04 01:43:28;;;;;;;18.02;7.63;;;;;;;;;;6222986;28;20050;-57
2023/06/04 01:46:29;;;;;;;14.90;6.13;;;;;;;;;;6217853;28;20041;-54
2023/06/04 01:49:29;;;;;;;14.32;5.95;;;;;;;;;;6222628;28;20068;-55
2023/06/04 01:52:30;;;;;;;19.38;7.50;;;;;;;;;;6222618;28;20038;-56
2023/06/04 01:55:33;;;;;;;17.40;7.75;;;;;;;;;;6222864;28;20045;-59
2023/06/04 01:58:34;;;;;;;20.27;7.40;;;;;;;;;;6224211;28;20057;-60
2023/06/04 02:01:35;;;;;;;15.23;6.20;;;;;;;;;;6219223;28;20089;-58
2023/06/04 02:04:36;;;;;;;14.10;5.30;;;;;;;;;;6225443;28;20069;-59
2023/06/04 02:07:38;;;;;;;13.32;5.78;;;;;;;;;;6222856;28;20057;-58
2023/06/04 02:10:39;;;;;;;;;;;;;;;;;;6223079;28;20674;-58
2023/06/04 02:13:39;;;;;;;12.57;4.90;;;;;;;;;;6221786;28;19937;-53
2023/06/04 02:16:40;;;;;;;15.35;5.20;;;;;;;;;;6224570;28;20037;-56
2023/06/04 02:19:49;;;;;;;14.68;5.30;;;;;;;;;;6221520;28;21540;-59
2023/06/04 02:22:50;;;;;;;13.85;5.10;;;;;;;;;;6219920;28;20363;-50
2023/06/04 02:25:50;;;;;;;15.68;5.10;;;;;;;;;;6219457;28;20041;-58
2023/06/04 02:28:51;;;;;;;12.52;4.93;;;;;;;;;;6221217;28;20133;-51
2023/06/04 02:31:52;;;;;;;10.90;5.20;;;;;;;;;;6222012;28;20511;-58
2023/06/04 02:34:52;;;;;;;14.90;6.22;;;;;;;;;;6223045;28;20084;-59
2023/06/04 02:37:53;;;;;;;15.48;5.45;;;;;;;;;;6219305;28;20135;-53
2023/06/04 02:40:54;;;;;;;14.97;4.97;;;;;;;;;;6220883;28;20052;-54
2023/06/04 02:43:55;;;;;;;13.07;5.30;;;;;;;;;;6222097;28;20041;-58
2023/06/04 02:46:55;;;;;;;16.23;5.28;;;;;;;;;;6221893;28;20135;-57
2023/06/04 02:49:56;;;;;;;12.40;4.75;;;;;;;;;;6218370;28;20045;-51
2023/06/04 02:52:56;;;;;;;14.50;5.28;;;;;;;;;;6222775;28;20072;-55
2023/06/04 02:55:57;;;;;;;17.83;5.30;;;;;;;;;;6220162;28;20046;-53
2023/06/04 02:58:58;;;;;;;16.48;5.05;;;;;;;;;;6220856;28;20041;-56
2023/06/04 03:01:58;;;;;;;19.08;4.93;;;;;;;;;;6220563;28;20489;-57
2023/06/04 03:04:59;;;;;;;15.50;5.15;;;;;;;;;;6220282;28;20136;-50
2023/06/04 03:08:02;;;;;;;16.65;4.95;;;;;;;;;;6218674;28;20042;-53
2023/06/04 03:11:03;;;;;;;15.57;5.07;;;;;;;;;;6222367;28;20451;-55
2023/06/04 03:14:03;;;;;;;12.85;4.57;;;;;;;;;;6223937;28;20058;-52
2023/06/04 03:17:10;;;;;;;16.13;5.53;;;;;;;;;;6223799;28;20045;-56
2023/06/04 03:20:10;;;;;;;21.55;5.78;;;;;;;;;;6221129;28;20038;-60
2023/06/04 03:23:11;;;;;;;11.85;4.68;;;;;;;;;;6222100;28;20069;-56
2023/06/04 03:26:12;;;;;;;13.95;4.57;;;;;;;;;;6222671;28;20378;-55
2023/06/04 03:29:13;;;;;;;18.50;4.72;;;;;;;;;;6219720;28;20042;-59
2023/06/04 03:32:15;;;;;;;12.85;5.07;;;;;;;;;;6219792;28;20099;-55
2023/06/04 03:35:16;;;;;;;12.95;5.30;;;;;;;;;;6222044;28;20192;-51
2023/06/04 03:38:16;;;;;;;13.13;4.43;;;;;;;;;;6220193;28;20037;-53
2023/06/04 03:41:17;;;;;;;16.67;4.85;;;;;;;;;;6218593;28;20076;-59
2023/06/04 03:44:18;;;;;;;11.43;3.78;;;;;;;;;;6221531;28;20057;-53
2023/06/04 03:47:19;;;;;;;13.52;4.60;;;;;;;;;;6220359;28;20045;-56
2023/06/04 03:50:19;;;;;;;11.90;4.57;;;;;;;;;;6221398;28;20087;-60
2023/06/04 03:53:20;;;;;;;15.93;5.00;;;;;;;;;;6221380;28;20072;-54
2023/06/04 03:56:21;;;;;;;17.05;5.40;;;;;;;;;;6220489;28;20092;-58
2023/06/04 03:59:22;;;;;;;15.25;4.75;;;;;;;;;;6219101;28;20065;-51
2023/06/04 04:02:22;;;;;;;14.60;4.90;;;;;;;;;;6219128;28;20041;-57
2023/06/04 04:05:23;;;;;;;11.38;4.60;;;;;;;;;;6218054;28;20045;-58
2023/06/04 04:08:24;;;;;;;14.70;4.90;;;;;;;;;;6220523;28;20053;-58
2023/06/04 04:11:25;;;;;;;15.07;5.40;;;;;;;;;;6221458;28;20042;-58
2023/06/04 04:14:26;;;;;;;13.77;5.37;;;;;;;;;;6221357;28;20049;-59
2023/06/04 04:17:26;;;;;;;17.25;6.93;;;;;;;;;;6220685;28;20632;-57
2023/06/04 04:20:27;;;;;;;13.20;5.97;;;;;;;;;;6216320;28;20045;-51
2023/06/04 04:23:28;;;;;;;14.20;5.88;;;;;;;;;;6218797;28;20070;-56
2023/06/04 04:26:29;;;;;;;15.17;6.10;;;;;;;;;;6218990;28;20528;-49
2023/06/04 04:29:34;;;;;;;15.30;6.00;;;;;;;;;;6221120;28;20046;-59
2023/06/04 04:32:38;;;;;;;13.70;5.93;;;;;;;;;;6226236;28;20493;-56
2023/06/04 04:35:39;;;;;;;13.65;5.68;;;;;;;;;;6221100;28;20057;-52
2023/06/04 04:38:40;;;;;;;14.70;5.53;;;;;;;;;;6220554;28;20404;-55
2023/06/04 04:41:41;;;;;;;16.80;5.95;;;;;;;;;;6217335;28;20073;-58
2023/06/04 04:44:41;;;;;;;16.90;5.57;;;;;;;;;;6220637;28;20156;-56
2023/06/04 04:47:42;;;;;;;12.82;5.30;;;;;;;;;;6219890;28;20231;-57
2023/06/04 04:50:42;;;;;;;12.68;5.03;;;;;;;;;;6217079;28;20416;-57
2023/06/04 04:53:43;;;;;;;17.48;5.22;;;;;;;;;;6217718;28;20148;-53
2023/06/04 04:56:44;;;;;;;13.43;5.38;;;;;;;;;;6219846;28;20624;-59
2023/06/04 04:59:44;;;;;;;13.82;5.22;;;;;;;;;;6217334;28;20042;-59
2023/06/04 05:02:45;;;;;;;14.43;6.05;;;;;;;;;;6221968;28;20447;-59
2023/06/04 05:05:45;;;;;;;16.02;5.55;;;;;;;;;;6227854;28;20494;-51
2023/06/04 05:08:48;;;;;;;14.30;5.28;;;;;;;;;;6236078;28;20038;-53
2023/06/04 05:11:48;;;;;;;14.05;5.80;;;;;;;;;;6232974;28;20049;-52
2023/06/04 05:14:49;;;;;;;16.67;5.45;;;;;;;;;;6231754;28;20492;-57
2023/06/04 05:17:52;;;;;;;10.13;4.30;;;;;;;;;;6238050;28;20096;-59
2023/06/04 05:20:52;;;;;;;15.27;5.30;;;;;;;;;;6230552;28;20053;-55
2023/06/04 05:23:53;;;;;;;15.43;4.97;;;;;;;;;;6234825;28;20077;-54
2023/06/04 05:26:53;;;;;;;14.35;4.70;;;;;;;;;;6229648;28;20053;-57
2023/06/04 05:29:54;;;;;;;14.30;4.80;;;;;;;;;;6233866;28;20073;-58
2023/06/04 05:32:54;;;;;;;13.60;4.70;;;;;;;;;;6233629;28;20096;-59
2023/06/04 05:35:57;;;;;;;13.07;4.45;;;;;;;;;;6231710;28;20077;-56
2023/06/04 05:38:59;;;;;;;12.65;4.88;;;;;;;;;;6235318;28;20095;-57
2023/06/04 05:42:00;;;;;;;12.35;4.85;;;;;;;;;;6230467;28;20053;-60
2023/06/04 05:45:00;;;;;;;11.20;4.75;;;;;;;;;;6229704;28;20045;-49
2023/06/04 05:48:01;;;;;;;15.70;5.05;;;;;;;;;;6222414;28;20095;-60
2023/06/04 05:51:02;;;;;;;14.68;4.82;;;;;;;;;;6225266;28;20072;-59
2023/06/04 05:54:03;;;;;;;10.65;4.10;;;;;;;;;;6240895;28;20161;-57
2023/06/04 05:57:04;;;;;;;13.13;4.75;;;;;;;;;;6235987;28;20496;-58
2023/06/04 06:00:09;;;;;;;12.98;4.07;;;;;;;;;;6237641;28;20419;-60
2023/06/04 06:03:09;;;;;;;16.58;4.28;;;;;;;;;;6236518;28;20041;-52
2023/06/04 06:06:10;;;;;;;17.50;4.97;;;;;;;;;;6240418;28;20481;-58
2023/06/04 06:09:11;;;;;;;11.18;4.40;;;;;;;;;;6240410;28;20056;-55
2023/06/04 06:12:11;;;;;;;13.93;5.07;;;;;;;;;;6230596;28;20045;-59
2023/06/04 06:15:12;;;;;;;15.93;4.45;;;;;;;;;;6237242;28;20038;-50
2023/06/04 06:18:13;;;;;;;14.60;5.75;;;;;;;;;;6236479;28;20500;-57
2023/06/04 06:21:13;;;;;;;12.93;4.28;;;;;;;;;;6233950;28;20053;-47
2023/06/04 06:24:14;;;;;;;14.80;4.38;;;;;;;;;;6241009;28;20085;-53
2023/06/04 06:27:15;;;;;;;10.20;3.85;;;;;;;;;;6229654;28;20412;-53
2023/06/04 06:30:16;;;;;;;18.70;4.55;;;;;;;;;;6235703;28;20077;-55
2023/06/04 06:33:21;;;;;;;10.88;4.20;;;;;;;;;;6232974;28;20049;-50
2023/06/04 06:36:22;;;;;;;11.70;4.13;;;;;;;;;;6231044;28;20469;-58
2023/06/04 06:39:22;;;;;;;11.75;4.18;;;;;;;;;;6240992;28;20068;-57
2023/06/04 06:42:23;;;;;;;9.80;4.25;;;;;;;;;;6230533;28;20127;-59
2023/06/04 06:45:23;;;;;;;11.13;4.47;;;;;;;;;;6233192;28;20470;-57
2023/06/04 06:48:24;;;;;;;13.63;5.03;;;;;;;;;;6233560;28;20088;-51
2023/06/04 06:51:25;;;;;;;13.05;4.15;;;;;;;;;;6236883;28;20053;-54
2023/06/04 06:54:26;;;;;;;13.20;4.10;;;;;;;;;;6238658;28;20051;-53
2023/06/04 06:57:26;;;;;;;10.10;4.32;;;;;;;;;;6238315;28;20045;-55
2023/06/04 07:00:27;;;;;;;11.75;3.83;;;;;;;;;;6237592;28;20055;-52
2023/06/04 07:03:28;;;;;;;15.98;4.78;;;;;;;;;;6239025;28;20045;-52
2023/06/04 07:06:29;;;;;;;13.02;3.70;;;;;;;;;;6240030;28;20045;-57
2023/06/04 07:09:29;;;;;;;13.25;3.92;;;;;;;;;;6240363;28;20056;-57
2023/06/04 07:12:30;;;;;;;14.18;4.13;;;;;;;;;;6237328;28;20497;-61
2023/06/04 07:15:30;;;;;;;12.38;4.10;;;;;;;;;;6239141;28;20053;-57
2023/06/04 07:18:32;;;;;;;12.15;4.00;;;;;;;;;;6239813;28;20045;-52
2023/06/04 07:21:32;;;;;;;11.18;3.80;;;;;;;;;;6237154;28;20514;-51
2023/06/04 07:24:33;;;;;;;11.88;3.67;;;;;;;;;;6239783;28;20132;-60
2023/06/04 07:27:34;;;;;;;11.85;4.07;;;;;;;;;;6226181;28;20519;-59
2023/06/04 07:30:36;;;;;;;11.90;4.30;;;;;;;;;;6217791;28;20049;-59
2023/06/04 07:33:42;;;;;;;;;;;;;;;;;;6233801;28;20132;-59
2023/06/04 07:36:43;;;;;;;25.80;5.38;;;;;;;;;;6227078;28;20446;-59
2023/06/04 07:39:44;;;;;;;17.75;4.28;;;;;;;;;;6230575;28;20069;-58
2023/06/04 07:42:47;;;;;;;25.77;4.82;;;;;;;;;;6233306;28;20038;-55
2023/06/04 07:45:47;;;;;;;12.40;3.40;;;;;;;;;;6241637;28;20045;-58
2023/06/04 07:48:48;;;;;;;16.88;3.88;;;;;;;;;;6232516;28;20037;-57
2023/06/04 07:51:49;;;;;;;11.77;3.75;;;;;;;;;;6230009;28;20037;-56
2023/06/04 07:54:50;;;;;;;11.63;3.95;;;;;;;;;;6227991;28;20047;-56
2023/06/04 07:57:50;;;;;;;8.43;3.72;;;;;;;;;;6246750;28;20034;-49
2023/06/04 08:00:51;;;;;;;12.53;4.33;;;;;;;;;;6237548;28;20446;-58
2023/06/04 08:03:52;;;;;;;15.43;4.03;;;;;;;;;;6241654;28;20041;-55
2023/06/04 08:06:52;;;;;;;8.77;3.27;;;;;;;;;;6235956;28;20042;-55
2023/06/04 08:09:53;;;;;;;12.52;3.42;;;;;;;;;;6249806;28;20476;-56
2023/06/04 08:12:54;;;;;;;12.03;4.27;;;;;;;;;;6246611;28;20037;-54
2023/06/04 08:15:54;;;;;;;14.90;4.00;;;;;;;;;;6245726;28;20049;-56
2023/06/04 08:18:55;;;;;;;13.15;4.10;;;;;;;;;;6239643;28;20068;-55
2023/06/04 08:21:55;;;;;;;12.88;4.20;;;;;;;;;;6235214;28;20052;-56
2023/06/04 08:24:56;;;;;;;14.33;3.83;;;;;;;;;;6237452;28;20099;-57
2023/06/04 08:27:57;;;;;;;12.10;4.05;;;;;;;;;;6238765;28;20119;-56
2023/06/04 08:30:57;;;;;;;10.80;3.57;;;;;;;;;;6246222;28;20524;-57
2023/06/04 08:33:58;;;;;;;12.00;4.07;;;;;;;;;;6237486;28;20056;-53
2023/06/04 08:36:59;;;;;;;13.67;3.70;;;;;;;;;;6237048;28;20438;-56
2023/06/04 08:39:59;;;;;;;13.80;4.33;;;;;;;;;;6241363;28;20045;-57
2023/06/04 08:43:00;;;;;;;12.37;4.60;;;;;;;;;;6258045;28;21428;-52
2023/06/04 08:46:08;;;;;;;12.23;3.87;;;;;;;;;;6247339;28;20061;-57
2023/06/04 08:49:11;;;;;;;12.18;3.80;;;;;;;;;;6242405;28;20050;-54
2023/06/04 08:52:12;;;;;;;8.60;3.28;;;;;;;;;;6226374;28;20526;-56
2023/06/04 08:55:14;;;;;;;9.60;3.20;;;;;;;;;;6238441;28;20864;-54
2023/06/04 08:58:14;;;;;;;9.43;3.67;;;;;;;;;;6244936;28;20136;-56
2023/06/04 09:01:16;;;;;;;12.43;3.70;;;;;;;;;;6240762;28;20534;-54
2023/06/04 09:04:16;;;;;;;9.10;2.93;;;;;;;;;;6243472;28;20529;-56
2023/06/04 09:07:17;;;;;;;8.50;3.40;;;;;;;;;;6247949;28;20070;-55
2023/06/04 09:10:21;;;;;;;11.37;3.60;;;;;;;;;;6234552;28;20353;-59
2023/06/04 09:13:25;;;;;;;16.70;4.00;;;;;;;;;;6241950;28;20042;-54
2023/06/04 09:16:25;;;;;;;14.50;3.83;;;;;;;;;;6242297;28;20065;-56
2023/06/04 09:19:26;;;;;;;9.57;3.73;;;;;;;;;;6244294;28;20527;-55
2023/06/04 09:22:37;;;;;;;8.67;3.47;;;;;;;;;;6236955;28;20474;-56
2023/06/04 09:25:42;;;;;;;14.13;4.22;;;;;;;;;;6230485;28;20158;-57
2023/06/04 09:28:44;;;;;;;10.75;4.22;;;;;;;;;;6239724;28;20140;-52
2023/06/04 09:31:58;;;;;;;13.00;3.80;;;;;;;;;;6248670;28;20041;-53
2023/06/04 09:35:31;;;;;;;11.15;3.60;;;;;;;;;;6236399;28;20045;-57
2023/06/04 09:38:41;;;;;;;11.77;4.10;;;;;;;;;;6208104;28;20041;-53
2023/06/04 09:41:41;;;;;;;14.55;3.72;;;;;;;;;;6253516;28;20057;-55
2023/06/04 09:44:44;;;;;;;14.50;3.90;;;;;;;;;;6226260;28;20099;-52
2023/06/04 09:47:45;;;;;;;11.43;4.20;;;;;;;;;;6239980;28;20091;-51
2023/06/04 09:50:46;;;;;;;10.97;4.03;;;;;;;;;;6231019;28;20465;-66
2023/06/04 09:54:01;;;;;;;13.98;4.63;;;;;;;;;;6241275;28;20075;-59
2023/06/04 09:57:02;;;;;;;13.52;4.60;;;;;;;;;;6241088;28;20080;-59
2023/06/04 10:00:08;;;;;;;7.93;3.70;;;;;;;;;;6232240;28;20175;-56
2023/06/04 10:03:14;;;;;;;9.52;4.20;;;;;;;;;;6224663;28;20046;-54
2023/06/04 10:06:18;;;;;;;11.13;3.88;;;;;;;;;;6221953;28;20417;-52
2023/06/04 10:09:21;;;;;;;13.55;4.20;;;;;;;;;;6215351;28;20144;-60
2023/06/04 10:12:30;;;;;;;11.93;4.00;;;;;;;;;;6216253;28;20044;-59
2023/06/04 10:15:34;;;;;;;9.55;4.05;;;;;;;;;;6220370;28;20041;-59
2023/06/04 10:18:35;;;;;;;13.68;4.53;;;;;;;;;;6216076;28;20065;-60
2023/06/04 10:21:36;;;;;;;11.57;4.63;;;;;;;;;;6220823;28;20037;-59
2023/06/04 10:24:36;;;;;;;11.30;4.57;;;;;;;;;;6222876;28;20049;-58
2023/06/04 10:27:37;;;;;;;15.27;4.40;;;;;;;;;;6222001;28;20062;-60
2023/06/04 10:30:38;;;;;;;9.90;4.83;;;;;;;;;;6217415;28;20119;-61
2023/06/04 10:33:39;;;;;;;11.07;4.50;;;;;;;;;;6219184;28;20041;-60
2023/06/04 10:36:45;;;;;;;8.73;4.03;;;;;;;;;;6220850;28;20128;-58
2023/06/04 10:39:54;;;;;;;13.00;4.90;;;;;;;;;;6217313;28;20064;-57
2023/06/04 10:42:55;;;;;;;11.35;4.70;;;;;;;;;;6220595;28;20132;-59
2023/06/04 10:45:56;;;;;;;9.53;4.50;;;;;;;;;;6220897;28;20107;-57
2023/06/04 10:48:56;;;;;;;9.40;4.07;;;;;;;;;;6219203;28;20076;-59
2023/06/04 10:52:02;;;;;;;10.90;4.80;;;;;;;;;;6219567;28;20117;-57
2023/06/04 10:55:04;;;;;;;12.07;4.85;;;;;;;;;;6219745;28;20046;-60
2023/06/04 10:58:06;;;;;;;12.25;4.60;;;;;;;;;;6219283;28;20519;-60
2023/06/04 11:01:06;;;;;;;12.67;4.60;;;;;;;;;;6220198;28;20060;-59
2023/06/04 11:04:20;;;;;;;11.43;4.87;;;;;;;;;;6220618;28;20046;-60
2023/06/04 11:07:20;;;;;;;11.15;4.68;;;;;;;;;;6215332;28;20133;-60
2023/06/04 11:10:32;;;;;;;11.03;4.80;;;;;;;;;;6220220;28;20042;-60
2023/06/04 11:13:33;;;;;;;9.90;4.72;;;;;;;;;;6220701;28;20498;-59
2023/06/04 11:16:33;;;;;;;16.07;5.40;;;;;;;;;;6220926;28;20128;-56
2023/06/04 11:19:37;;;;;;;11.90;5.07;;;;;;;;;;6222211;28;20045;-61
2023/06/04 11:22:38;;;;;;;17.48;5.40;;;;;;;;;;6219540;28;20053;-60
2023/06/04 11:25:39;;;;;;;13.67;5.20;;;;;;;;;;6221034;28;20409;-61
2023/06/04 11:28:40;;;;;;;14.00;5.90;;;;;;;;;;6215380;28;20135;-59
2023/06/04 11:31:46;;;;;;;15.00;5.15;;;;;;;;;;6217190;28;20041;-59
2023/06/04 11:34:46;;;;;;;13.32;5.03;;;;;;;;;;6220155;28;20282;-59
2023/06/04 11:37:57;;;;;;;14.00;5.50;;;;;;;;;;6222195;28;20038;-56
2023/06/04 11:40:59;;;;;;;10.93;5.03;;;;;;;;;;6219001;28;20501;-50
2023/06/04 11:44:05;;;;;;;11.38;5.07;;;;;;;;;;6220385;28;20088;-57
2023/06/04 11:47:08;;;;;;;12.07;5.13;;;;;;;;;;6217772;28;20100;-56
2023/06/04 11:50:09;;;;;;;13.25;5.07;;;;;;;;;;6215776;28;20066;-59
2023/06/04 11:53:10;;;;;;;12.25;5.03;;;;;;;;;;6219438;28;20026;-59
2023/06/04 11:56:11;;;;;;;12.67;5.10;;;;;;;;;;6219549;28;20528;-59
2023/06/04 11:59:13;;;;;;;13.80;5.43;;;;;;;;;;6221250;28;20091;-60
2023/06/04 12:02:14;;;;;;;;;;;;;;;;;;6218075;28;20053;-59
2023/06/04 12:05:15;;;;;;;10.35;5.25;;;;;;;;;;6219178;28;19925;-59
2023/06/04 12:08:16;;;;;;;13.10;4.93;;;;;;;;;;6219476;28;20041;-60
2023/06/04 12:11:35;;;;;;;10.97;5.00;;;;;;;;;;6225569;28;20065;-62
2023/06/04 12:14:35;;;;;;;18.35;6.32;;;;;;;;;;6221728;28;20065;-60
2023/06/04 12:17:39;;;;;;;15.93;7.20;;;;;;;;;;6226562;28;20393;-60
2023/06/04 12:20:41;;;;;;;13.68;5.35;;;;;;;;;;6223827;28;20504;-56
2023/06/04 12:23:42;;;;;;;11.98;4.85;;;;;;;;;;6225684;28;20046;-59
2023/06/04 12:26:45;;;;;;;15.30;6.23;;;;;;;;;;6223978;28;20049;-55
2023/06/04 12:30:07;;;;;;;13.48;5.30;;;;;;;;;;6222536;28;20128;-61
2023/06/04 12:33:07;;;;;;;10.73;5.10;;;;;;;;;;6227036;28;20041;-60
2023/06/04 12:36:08;;;;;;;11.02;5.05;;;;;;;;;;6224218;28;20041;-57
2023/06/04 12:39:09;;;;;;;15.13;5.40;;;;;;;;;;6225042;28;20041;-60
2023/06/04 12:42:09;;;;;;;15.60;5.70;;;;;;;;;;6225667;28;20045;-59
2023/06/04 12:45:13;;;;;;;14.60;5.57;;;;;;;;;;6221998;28;20466;-61
2023/06/04 12:48:14;;;;;;;14.52;6.20;;;;;;;;;;6222701;28;20096;-59
2023/06/04 12:51:14;;;;;;;15.20;5.07;;;;;;;;;;6224449;28;20050;-60
2023/06/04 12:54:15;;;;;;;12.85;5.38;;;;;;;;;;6223544;28;20073;-61
2023/06/04 12:57:16;;;;;;;15.90;5.70;;;;;;;;;;6213996;28;20064;-57
2023/06/04 13:00:17;;;;;;;13.33;5.53;;;;;;;;;;6214252;28;20053;-55
2023/06/04 13:03:17;;;;;;;15.57;5.03;;;;;;;;;;6210310;28;20092;-61
2023/06/04 13:06:18;;;;;;;12.37;5.63;;;;;;;;;;6211922;28;20085;-59
2023/06/04 13:09:20;;;;;;;14.03;5.90;;;;;;;;;;6211592;28;20046;-56
2023/06/04 13:12:21;;;;;;;11.50;5.03;;;;;;;;;;6212717;28;20860;-55
2023/06/04 13:15:22;;;;;;;13.63;5.50;;;;;;;;;;6211665;28;20042;-57
2023/06/04 13:18:23;;;;;;;16.35;5.95;;;;;;;;;;6211113;28;20046;-60
2023/06/04 13:21:23;;;;;;;12.97;5.10;;;;;;;;;;6211425;28;20084;-60
2023/06/04 13:24:25;;;;;;;12.37;5.70;;;;;;;;;;6207271;28;20053;-56
2023/06/04 13:27:26;;;;;;;14.02;5.88;;;;;;;;;;6208036;28;21477;-59
2023/06/04 13:30:26;;;;;;;14.97;5.07;;;;;;;;;;6212511;28;20045;-58
2023/06/04 13:33:27;;;;;;;13.97;5.70;;;;;;;;;;6212327;28;20053;-60
2023/06/04 13:36:28;;;;;;;14.33;5.60;;;;;;;;;;6208652;28;22454;-60
2023/06/04 13:39:29;;;;;;;11.43;5.32;;;;;;;;;;6214416;28;20054;-57
2023/06/04 13:42:30;;;;;;;12.13;5.43;;;;;;;;;;6214041;28;20552;-54
2023/06/04 13:45:30;;;;;;;10.87;5.17;;;;;;;;;;6208607;28;20053;-59
2023/06/04 13:48:31;;;;;;;14.47;5.43;;;;;;;;;;6208504;28;20059;-59
2023/06/04 13:51:31;;;;;;;16.17;5.60;;;;;;;;;;6214876;28;20627;-54
2023/06/04 13:54:32;;;;;;;14.90;5.50;;;;;;;;;;6212903;28;20153;-55
2023/06/04 13:57:33;;;;;;;13.67;5.80;;;;;;;;;;6205936;28;20695;-59
2023/06/04 14:00:34;;;;;;;12.57;5.75;;;;;;;;;;6213755;28;20050;-55
2023/06/04 14:03:34;;;;;;;14.75;6.10;;;;;;;;;;6208826;28;20072;-54
2023/06/04 14:06:36;;;;;;;14.13;6.07;;;;;;;;;;6206805;28;20061;-56
2023/06/04 14:09:36;;;;;;;14.90;6.30;;;;;;;;;;6214983;28;20041;-57
2023/06/04 14:12:39;;;;;;;16.73;5.83;;;;;;;;;;6212748;28;20607;-56
2023/06/04 14:15:39;;;;;;;14.40;5.53;;;;;;;;;;6206607;28;20081;-59
2023/06/04 14:18:40;;;;;;;13.55;5.57;;;;;;;;;;6209870;28;20496;-53
2023/06/04 14:21:43;;;;;;;13.10;5.70;;;;;;;;;;6212189;28;20049;-60
2023/06/04 14:24:44;;;;;;;14.57;5.68;;;;;;;;;;6210906;28;20037;-55
2023/06/04 14:27:44;;;;;;;13.77;5.80;;;;;;;;;;6207880;28;20056;-55
2023/06/04 14:30:45;;;;;;;14.93;5.57;;;;;;;;;;6211119;28;20049;-60
2023/06/04 14:33:45;;;;;;;13.17;5.40;;;;;;;;;;6209160;28;20054;-57
2023/06/04 14:36:47;;;;;;;12.80;5.90;;;;;;;;;;6209955;28;20773;-56
2023/06/04 14:39:47;;;;;;;16.00;6.15;;;;;;;;;;6206427;28;20394;-57
2023/06/04 14:42:48;;;;;;;13.40;6.03;;;;;;;;;;6211789;28;20129;-58
2023/06/04 14:45:48;;;;;;;10.83;5.70;;;;;;;;;;6210214;28;20050;-54
2023/06/04 14:48:49;;;;;;;15.40;6.33;;;;;;;;;;6205027;28;20206;-55
2023/06/04 14:51:50;;;;;;;15.60;5.93;;;;;;;;;;6213602;28;20303;-56
2023/06/04 14:54:50;;;;;;;16.10;6.10;;;;;;;;;;6209116;28;20054;-57
2023/06/04 14:57:51;;;;;;;14.73;6.17;;;;;;;;;;6207954;28;20088;-55
2023/06/04 15:00:52;;;;;;;14.32;5.90;;;;;;;;;;6212759;28;20042;-57
2023/06/04 15:03:52;;;;;;;16.23;6.17;;;;;;;;;;6207310;28;20484;-57
2023/06/04 15:06:53;;;;;;;13.03;6.50;;;;;;;;;;6205982;28;20102;-57
2023/06/04 15:09:53;;;;;;;13.70;6.53;;;;;;;;;;6207442;28;20053;-58
2023/06/04 15:12:54;;;;;;;12.27;5.97;;;;;;;;;;6210452;28;20076;-57
2023/06/04 15:15:55;;;;;;;30.42;7.63;;;;;;;;;;6207341;28;20107;-58
2023/06/04 15:18:56;;;;;;;14.20;5.70;;;;;;;;;;6207067;28;20045;-55
2023/06/04 15:21:57;;;;;;;15.27;5.97;;;;;;;;;;6209197;28;20093;-59
2023/06/04 15:24:57;;;;;;;13.23;5.83;;;;;;;;;;6207997;28;20776;-60
2023/06/04 15:27:59;;;;;;;15.90;5.77;;;;;;;;;;6208741;28;20092;-52
2023/06/04 15:31:00;;;;;;;14.00;6.22;;;;;;;;;;6211096;28;20049;-54
2023/06/04 15:34:00;;;;;;;15.17;5.53;;;;;;;;;;6210061;28;20084;-52
2023/06/04 15:37:01;;;;;;;18.57;5.80;;;;;;;;;;6205772;28;20053;-58
2023/06/04 15:40:03;;;;;;;19.23;5.83;;;;;;;;;;6208338;28;20678;-53
2023/06/04 15:43:04;;;;;;;16.60;5.88;;;;;;;;;;6208953;28;20059;-57
2023/06/04 15:46:04;;;;;;;20.23;5.80;;;;;;;;;;6205860;28;20058;-54
2023/06/04 15:49:07;;;;;;;12.07;6.33;;;;;;;;;;6207251;28;20060;-56
2023/06/04 15:52:08;;;;;;;13.55;6.07;;;;;;;;;;6206759;28;20313;-57
2023/06/04 15:55:09;;;;;;;23.83;6.50;;;;;;;;;;6207444;28;20073;-58
2023/06/04 15:58:09;;;;;;;17.20;6.57;;;;;;;;;;6206318;28;20057;-54
2023/06/04 16:01:10;;;;;;;14.27;5.88;;;;;;;;;;6211403;28;20485;-57
2023/06/04 16:04:11;;;;;;;13.27;6.10;;;;;;;;;;6212422;28;20053;-51
2023/06/04 16:07:12;;;;;;;15.77;6.10;;;;;;;;;;6209770;28;20627;-59
2023/06/04 16:10:12;;;;;;;15.80;6.47;;;;;;;;;;6211199;28;20045;-58
2023/06/04 16:13:13;;;;;;;14.40;6.13;;;;;;;;;;6212887;28;20140;-56
2023/06/04 16:16:14;;;;;;;19.63;6.97;;;;;;;;;;6208439;28;20410;-58
2023/06/04 16:19:15;;;;;;;15.05;5.97;;;;;;;;;;6211867;28;20676;-60
2023/06/04 16:22:15;;;;;;;14.30;5.57;;;;;;;;;;6215342;28;20099;-57
2023/06/04 16:25:17;;;;;;;13.30;6.20;;;;;;;;;;6207693;28;20208;-51
2023/06/04 16:28:18;;;;;;;19.20;6.10;;;;;;;;;;6206982;28;20066;-52
2023/06/04 16:31:19;;;;;;;16.60;6.22;;;;;;;;;;6213602;28;20149;-59
2023/06/04 16:34:20;;;;;;;16.17;6.72;;;;;;;;;;6205871;28;20115;-56
2023/06/04 16:37:20;;;;;;;19.98;6.68;;;;;;;;;;6215072;28;20056;-58
2023/06/04 16:40:21;;;;;;;19.80;6.63;;;;;;;;;;6211161;28;20064;-53
2023/06/04 16:43:22;;;;;;;21.23;6.82;;;;;;;;;;6213926;28;20058;-58
2023/06/04 16:46:23;;;;;;;17.83;6.70;;;;;;;;;;6211980;28;20080;-54
2023/06/04 16:49:24;;;;;;;22.50;6.88;;;;;;;;;;6210747;28;20131;-51
2023/06/04 16:52:25;;;;;;;21.50;6.57;;;;;;;;;;6210140;28;20448;-50
2023/06/04 16:55:31;;;;;;;19.80;6.22;;;;;;;;;;6208492;28;20046;-58
2023/06/04 16:58:34;;;;;;;14.70;5.68;;;;;;;;;;6218274;28;20459;-58
2023/06/04 17:01:36;;;;;;;16.50;5.97;;;;;;;;;;6213159;28;20049;-56
2023/06/04 17:04:37;;;;;;;17.75;5.40;;;;;;;;;;6216997;28;20115;-60
2023/06/04 17:07:38;;;;;;;13.57;4.70;;;;;;;;;;6215438;28;20042;-56
2023/06/04 17:10:38;;;;;;;16.57;6.37;;;;;;;;;;6218389;28;20680;-53
2023/06/04 17:13:41;;;;;;;18.95;4.95;;;;;;;;;;6213056;28;20045;-61
2023/06/04 17:16:41;;;;;;;14.77;5.17;;;;;;;;;;6213058;28;20046;-58
2023/06/04 17:19:46;;;;;;;21.13;5.45;;;;;;;;;;6217117;28;20522;-59
2023/06/04 17:22:47;;;;;;;14.73;5.88;;;;;;;;;;6219221;28;20076;-56
2023/06/04 17:25:48;;;;;;;15.23;4.95;;;;;;;;;;6215364;28;20042;-61
2023/06/04 17:28:49;;;;;;;17.92;5.22;;;;;;;;;;6218089;28;20618;-60
2023/06/04 17:31:51;;;;;;;13.32;4.90;;;;;;;;;;6212892;28;20153;-56
2023/06/04 17:34:52;;;;;;;13.40;5.57;;;;;;;;;;6216436;28;20520;-58
2023/06/04 17:37:53;;;;;;;11.98;4.55;;;;;;;;;;6213861;28;20152;-59
2023/06/04 17:40:54;;;;;;;18.30;5.43;;;;;;;;;;6210844;28;20062;-51
2023/06/04 17:43:56;;;;;;;12.32;4.38;;;;;;;;;;6213737;28;20577;-56
2023/06/04 17:46:59;;;;;;;14.10;4.33;;;;;;;;;;6214085;28;20050;-60
2023/06/04 17:50:01;;;;;;;15.45;4.60;;;;;;;;;;6211718;28;20057;-54
2023/06/04 17:53:01;;;;;;;17.17;5.60;;;;;;;;;;6213740;28;20057;-59